Time;durP1;ratioP1;P1;durP2;ratioP2;P2;SDS_P1;SDS_P2;PMS_P1;PMS_P2;Temp;Humidity;BMP_temperature;BMP_pressure;BME280_temperature;BME280_humidity;BME280_pressure;Samples;Min_cycle;Max_cycle;Signal;HPM_P1;HPM_P2
2022/02/05 00:00:38;;;;;;;14.55;4.70;;;10.70;99.90;;;;;;5116437;27;20040;-53
2022/02/05 00:05:58;;;;;;;15.95;5.15;;;10.70;99.90;;;;;;5102392;28;20039;-53
2022/02/05 00:08:41;;;;;;;21.45;4.32;;;10.70;99.90;;;;;;5101954;27;20063;-52
2022/02/05 00:41:51;;;;;;;7.07;4.10;;;10.80;99.90;;;;;;5122378;27;20088;-56
2022/02/05 00:44:07;;;;;;;11.98;4.60;;;10.80;99.90;;;;;;5117460;27;20431;-55
2022/02/05 00:46:39;;;;;;;14.30;5.22;;;10.70;99.90;;;;;;5117166;27;20085;-55
2022/02/05 00:49:07;;;;;;;16.20;4.85;;;10.80;99.90;;;;;;5074895;28;20094;-53
2022/02/05 00:51:48;;;;;;;11.52;4.05;;;10.80;99.90;;;;;;5109890;27;20043;-50
2022/02/05 00:54:19;;;;;;;13.60;4.43;;;10.70;99.90;;;;;;5100383;27;20051;-57
2022/02/05 00:56:49;;;;;;;14.07;4.43;;;10.80;99.90;;;;;;5087762;28;20052;-54
2022/02/05 00:59:20;;;;;;;14.23;4.50;;;10.70;99.90;;;;;;5130758;27;20036;-54
2022/02/05 01:01:49;;;;;;;13.95;4.47;;;10.70;99.90;;;;;;5129475;27;20027;-53
2022/02/05 01:04:16;;;;;;;25.13;5.93;;;10.80;99.90;;;;;;5133165;27;20065;-55
2022/02/05 01:06:45;;;;;;;18.27;6.25;;;10.70;99.90;;;;;;5128062;27;20036;-54
2022/02/05 01:09:20;;;;;;;18.27;5.07;;;10.70;99.90;;;;;;5126884;27;20121;-55
2022/02/05 01:11:49;;;;;;;11.50;5.15;;;10.70;99.90;;;;;;5130022;27;20126;-55
2022/02/05 01:14:21;;;;;;;12.00;4.07;;;10.70;99.90;;;;;;5115036;27;20039;-52
2022/02/05 01:17:04;;;;;;;20.80;6.28;;;10.70;99.90;;;;;;5114422;27;20488;-53
2022/02/05 01:22:08;;;;;;;14.93;4.32;;;10.60;99.90;;;;;;5132083;27;20045;-51
2022/02/05 01:24:37;;;;;;;9.77;4.57;;;10.60;99.90;;;;;;5133159;27;20039;-50
2022/02/05 01:27:10;;;;;;;12.40;4.65;;;10.60;99.90;;;;;;5132321;27;20130;-50
2022/02/05 01:32:27;;;;;;;10.57;4.28;;;10.60;99.90;;;;;;5121785;27;20498;-50
2022/02/05 01:51:47;;;;;;;19.50;6.75;;;10.60;99.90;;;;;;5080914;28;20058;-53
2022/02/05 01:56:52;;;;;;;11.13;5.47;;;10.60;99.90;;;;;;5113836;28;20063;-52
2022/02/05 02:04:58;;;;;;;16.17;5.88;;;10.50;99.90;;;;;;5105619;28;20500;-50
2022/02/05 02:09:38;;;;;;;13.57;5.53;;;10.60;99.90;;;;;;5120771;28;20078;-50
2022/02/05 02:10:28;;;;;;;13.80;5.35;;;10.60;99.90;;;;;;5120655;28;20466;-49
2022/02/05 02:13:40;;;;;;;16.30;6.35;;;10.60;99.90;;;;;;5102498;28;20035;-53
2022/02/05 02:21:34;;;;;;;11.18;4.15;;;10.60;99.90;;;;;;5095593;28;20416;-49
2022/02/05 02:24:21;;;;;;;12.98;4.13;;;10.60;99.90;;;;;;5120593;28;20558;-50
2022/02/05 02:29:57;;;;;;;15.10;5.18;;;10.60;99.90;;;;;;5115004;28;20161;-50
2022/02/05 02:32:26;;;;;;;11.88;5.38;;;10.60;99.90;;;;;;5119539;28;20039;-51
2022/02/05 02:35:00;;;;;;;11.98;4.40;;;10.60;99.90;;;;;;5120697;28;20081;-53
2022/02/05 02:37:36;;;;;;;16.88;6.40;;;10.50;99.90;;;;;;5120459;28;20054;-52
2022/02/05 02:43:06;;;;;;;14.57;5.07;;;10.60;99.90;;;;;;5099002;28;20138;-50
2022/02/05 02:45:34;;;;;;;12.57;4.35;;;10.60;99.90;;;;;;5102182;28;20079;-51
2022/02/05 02:48:02;;;;;;;11.23;5.07;;;10.60;99.90;;;;;;5120331;28;20416;-49
2022/02/05 02:56:20;;;;;;;15.02;4.40;;;10.60;99.90;;;;;;5120467;28;20559;-50
2022/02/05 02:58:51;;;;;;;14.95;4.38;;;10.70;99.90;;;;;;5120309;28;20126;-49
2022/02/05 03:01:20;;;;;;;14.25;5.22;;;10.60;99.90;;;;;;5120238;28;20062;-52
2022/02/05 03:03:47;;;;;;;10.15;4.20;;;10.60;99.90;;;;;;5120173;28;20066;-50
2022/02/05 03:06:15;;;;;;;16.83;5.60;;;10.60;99.90;;;;;;5119941;28;20092;-50
2022/02/05 03:08:48;;;;;;;13.23;4.38;;;10.60;99.90;;;;;;5120079;28;20048;-51
2022/02/05 03:11:19;;;;;;;11.35;4.55;;;10.60;99.90;;;;;;5119102;28;20046;-49
2022/02/05 03:13:47;;;;;;;22.38;4.32;;;10.60;99.90;;;;;;5118983;28;20064;-50
2022/02/05 03:16:27;;;;;;;19.38;6.93;;;10.70;99.90;;;;;;5116282;28;20101;-49
2022/02/05 03:21:25;;;;;;;19.85;6.90;;;10.60;99.90;;;;;;5115639;28;20512;-50
2022/02/05 03:23:53;;;;;;;13.07;4.80;;;10.60;99.90;;;;;;5116672;28;20125;-51
2022/02/05 03:26:20;;;;;;;12.35;5.13;;;10.60;99.90;;;;;;5116726;28;20039;-53
2022/02/05 03:28:47;;;;;;;10.95;4.70;;;10.60;99.90;;;;;;5115493;28;20426;-52
2022/02/05 03:31:15;;;;;;;18.00;6.85;;;10.60;99.90;;;;;;5116480;28;20044;-50
2022/02/05 03:33:43;;;;;;;11.88;5.15;;;10.60;99.90;;;;;;5116600;28;20436;-50
2022/02/05 03:36:10;;;;;;;15.05;4.30;;;10.60;99.90;;;;;;5115485;28;20043;-52
2022/02/05 03:38:38;;;;;;;11.93;4.85;;;10.60;99.90;;;;;;5114973;28;20039;-51
2022/02/05 03:41:06;;;;;;;16.48;5.60;;;10.60;99.90;;;;;;5098218;28;20031;-52
2022/02/05 03:43:33;;;;;;;10.18;5.30;;;10.60;99.90;;;;;;5098493;28;20674;-52
2022/02/05 03:46:01;;;;;;;13.63;4.72;;;10.50;99.90;;;;;;5116216;28;20075;-53
2022/02/05 03:48:28;;;;;;;17.90;5.20;;;10.40;99.90;;;;;;5098024;28;20044;-49
2022/02/05 03:50:56;;;;;;;16.08;3.92;;;10.40;99.90;;;;;;5116172;28;20451;-51
2022/02/05 03:53:23;;;;;;;14.00;5.00;;;10.40;99.90;;;;;;5116260;28;20047;-50
2022/02/05 03:55:51;;;;;;;11.85;4.70;;;10.30;99.90;;;;;;5116074;28;20073;-53
2022/02/05 03:58:19;;;;;;;15.30;5.32;;;10.40;99.90;;;;;;5098039;28;20043;-51
2022/02/05 04:00:46;;;;;;;11.15;4.90;;;10.40;99.90;;;;;;5115946;28;20047;-50
2022/02/05 04:03:14;;;;;;;8.18;5.20;;;10.30;99.90;;;;;;5098109;28;20059;-49
2022/02/05 04:05:41;;;;;;;15.32;4.78;;;10.40;99.90;;;;;;5115927;28;20077;-50
2022/02/05 04:08:11;;;;;;;12.10;4.65;;;10.40;99.90;;;;;;5114667;28;20554;-50
2022/02/05 04:10:46;;;;;;;16.40;5.88;;;10.30;99.90;;;;;;5115624;28;20075;-48
2022/02/05 04:16:22;;;;;;;11.75;5.70;;;10.30;99.90;;;;;;5115684;28;20044;-49
2022/02/05 04:18:53;;;;;;;15.57;5.10;;;10.20;99.90;;;;;;5114968;28;20051;-53
2022/02/05 04:21:21;;;;;;;20.38;5.30;;;10.20;99.90;;;;;;5115817;28;20048;-51
2022/02/05 04:23:51;;;;;;;14.43;4.35;;;10.20;99.90;;;;;;5115543;28;20096;-49
2022/02/05 04:26:20;;;;;;;11.93;5.25;;;10.30;99.90;;;;;;5114273;28;20389;-50
2022/02/05 04:28:48;;;;;;;19.35;5.40;;;10.30;99.90;;;;;;5097488;28;20410;-50
2022/02/05 04:31:15;;;;;;;14.23;5.55;;;10.30;99.90;;;;;;5115383;28;20036;-53
2022/02/05 04:33:43;;;;;;;14.65;5.07;;;10.30;99.90;;;;;;5114125;28;20122;-49
2022/02/05 04:36:11;;;;;;;17.92;6.30;;;10.30;99.90;;;;;;5115219;28;20064;-49
2022/02/05 04:38:41;;;;;;;8.73;4.13;;;10.40;99.90;;;;;;5115222;28;20475;-51
2022/02/05 04:41:24;;;;;;;10.85;5.05;;;10.40;99.90;;;;;;5115255;28;20074;-51
2022/02/05 04:44:22;;;;;;;9.27;4.47;;;10.40;99.90;;;;;;5114123;28;20118;-52
2022/02/05 05:10:41;;;;;;;9.63;3.75;;;10.40;99.90;;;;;;5114886;28;20137;-49
2022/02/05 05:13:21;;;;;;;13.63;3.78;;;10.40;99.90;;;;;;5114806;28;20438;-52
2022/02/05 05:21:11;;;;;;;13.90;5.28;;;10.40;99.90;;;;;;5114473;28;20050;-50
2022/02/05 05:23:39;;;;;;;8.65;5.38;;;10.40;99.90;;;;;;5114586;28;20058;-52
2022/02/05 05:26:07;;;;;;;11.07;4.57;;;10.40;99.90;;;;;;5114560;28;20408;-50
2022/02/05 05:28:34;;;;;;;7.82;5.38;;;10.40;99.90;;;;;;5114377;28;20044;-53
2022/02/05 05:31:02;;;;;;;11.65;5.20;;;10.40;99.90;;;;;;5096511;28;20051;-49
2022/02/05 05:33:29;;;;;;;12.23;4.97;;;10.40;99.90;;;;;;5114220;28;20044;-49
2022/02/05 05:35:57;;;;;;;8.80;4.68;;;10.40;99.90;;;;;;5114115;28;20067;-51
2022/02/05 05:38:25;;;;;;;8.43;4.47;;;10.30;99.90;;;;;;5095200;28;20117;-50
2022/02/05 05:40:52;;;;;;;8.35;4.05;;;10.30;99.90;;;;;;5114127;28;20044;-49
2022/02/05 05:43:45;;;;;;;10.48;4.95;;;10.30;99.90;;;;;;5096268;28;20130;-51
2022/02/05 05:46:31;;;;;;;11.50;5.03;;;10.30;99.90;;;;;;5114413;28;20059;-48
2022/02/05 05:49:22;;;;;;;11.38;6.97;;;10.30;99.90;;;;;;5096158;28;20070;-49
2022/02/05 05:51:48;;;;;;;11.80;6.43;;;10.30;99.90;;;;;;5095648;28;20043;-51
2022/02/05 05:54:16;;;;;;;11.77;7.93;;;10.30;99.90;;;;;;5112820;28;20039;-52
2022/02/05 05:56:45;;;;;;;10.43;5.97;;;10.30;99.90;;;;;;5082303;28;20052;-50
2022/02/05 05:59:13;;;;;;;8.18;5.13;;;10.20;99.90;;;;;;5093563;28;20048;-53
2022/02/05 06:01:41;;;;;;;8.18;5.50;;;10.30;99.90;;;;;;5075735;28;20123;-49
2022/02/05 06:04:09;;;;;;;9.18;5.15;;;10.30;99.90;;;;;;5093537;28;20128;-53
2022/02/05 06:06:36;;;;;;;12.50;5.93;;;10.30;99.90;;;;;;5075474;28;20139;-53
2022/02/05 06:09:03;;;;;;;8.95;5.10;;;10.30;99.90;;;;;;5093490;28;20043;-54
2022/02/05 06:11:32;;;;;;;10.15;4.10;;;10.30;99.90;;;;;;5059240;28;20055;-49
2022/02/05 06:13:59;;;;;;;13.43;6.20;;;10.30;99.90;;;;;;5092484;28;20036;-52
2022/02/05 06:16:31;;;;;;;12.45;5.93;;;10.40;99.90;;;;;;5093309;28;20043;-50
2022/02/05 06:18:59;;;;;;;8.43;4.93;;;10.40;99.90;;;;;;5093371;28;20079;-55
2022/02/05 06:21:26;;;;;;;11.75;7.13;;;10.50;99.90;;;;;;5092205;28;20119;-49
2022/02/05 06:23:54;;;;;;;8.13;5.43;;;10.60;99.90;;;;;;5075578;28;20058;-53
2022/02/05 06:26:22;;;;;;;12.82;5.85;;;10.70;99.90;;;;;;5075579;28;20044;-53
2022/02/05 06:28:49;;;;;;;10.50;5.57;;;10.80;99.90;;;;;;5093389;28;20520;-54
2022/02/05 06:31:17;;;;;;;12.55;6.57;;;10.90;99.90;;;;;;5093383;28;20036;-53
2022/02/05 06:33:46;;;;;;;20.30;8.23;;;11.00;99.90;;;;;;5093180;28;20058;-53
2022/02/05 06:36:14;;;;;;;14.35;7.95;;;11.20;99.90;;;;;;5092144;28;20043;-53
2022/02/05 06:38:42;;;;;;;17.05;9.55;;;11.50;99.90;;;;;;5093431;28;20631;-53
2022/02/05 06:41:09;;;;;;;15.68;9.07;;;11.90;99.90;;;;;;5093235;28;20494;-50
2022/02/05 06:43:37;;;;;;;11.55;7.30;;;12.30;99.90;;;;;;5092008;28;20071;-53
2022/02/05 06:46:04;;;;;;;16.55;8.10;;;12.80;99.90;;;;;;5074913;28;20111;-53
2022/02/05 06:48:32;;;;;;;12.82;7.68;;;13.20;99.90;;;;;;5093481;28;20044;-50
2022/02/05 06:51:00;;;;;;;12.68;7.75;;;13.50;99.90;;;;;;5096949;28;20099;-50
2022/02/05 06:53:27;;;;;;;13.95;6.65;;;13.80;99.90;;;;;;5096879;28;20070;-52
2022/02/05 06:55:55;;;;;;;9.35;6.38;;;13.80;99.90;;;;;;5103212;28;20047;-51
2022/02/05 06:58:22;;;;;;;9.30;6.05;;;13.70;99.90;;;;;;5117222;28;20130;-53
2022/02/05 07:00:51;;;;;;;7.68;5.75;;;13.60;99.90;;;;;;5117223;28;20123;-54
2022/02/05 07:03:21;;;;;;;9.88;6.95;;;13.40;99.90;;;;;;5117040;28;20561;-50
2022/02/05 07:05:50;;;;;;;8.13;6.13;;;13.30;99.90;;;;;;5116981;28;20135;-52
2022/02/05 07:08:18;;;;;;;7.60;4.80;;;13.30;99.90;;;;;;5082177;28;20402;-51
2022/02/05 07:10:47;;;;;;;7.78;4.68;;;13.40;99.90;;;;;;5098630;28;20047;-58
2022/02/05 07:13:17;;;;;;;10.32;5.82;;;13.70;99.90;;;;;;5094971;27;20047;-53
2022/02/05 07:15:55;;;;;;;9.18;5.40;;;14.00;99.90;;;;;;5129338;27;20516;-55
2022/02/05 07:18:34;;;;;;;5.88;3.97;;;14.40;99.90;;;;;;5136029;27;20037;-53
2022/02/05 07:21:15;;;;;;;7.65;4.78;;;14.70;99.90;;;;;;5113065;28;20405;-54
2022/02/05 07:29:15;;;;;;;9.07;4.47;;;15.90;99.90;;;;;;5116389;27;20043;-51
2022/02/05 07:32:03;;;;;;;9.55;5.40;;;16.20;99.90;;;;;;5125495;27;20054;-54
2022/02/05 07:34:35;;;;;;;8.95;5.32;;;16.50;99.90;;;;;;5112162;28;20036;-51
2022/02/05 07:37:03;;;;;;;6.78;5.05;;;16.60;99.90;;;;;;5129456;27;20038;-52
2022/02/05 07:39:40;;;;;;;8.20;5.93;;;16.80;99.90;;;;;;5128796;27;20501;-53
2022/02/05 07:42:11;;;;;;;15.57;9.35;;;17.00;99.90;;;;;;5134771;27;20096;-54
2022/02/05 07:44:39;;;;;;;14.43;9.65;;;17.30;99.90;;;;;;5128025;27;20047;-51
2022/02/05 07:47:08;;;;;;;8.98;8.00;;;17.30;99.90;;;;;;5117464;27;20092;-53
2022/02/05 07:49:42;;;;;;;12.38;7.93;;;17.40;99.90;;;;;;5114190;27;20035;-51
2022/02/05 07:52:10;;;;;;;19.05;11.57;;;17.50;99.90;;;;;;5135651;27;20511;-51
2022/02/05 07:54:39;;;;;;;18.92;12.02;;;17.70;99.90;;;;;;5120213;27;20035;-50
2022/02/05 07:57:07;;;;;;;13.57;11.10;;;17.80;99.90;;;;;;5135595;27;20043;-53
2022/02/05 07:59:35;;;;;;;16.08;8.10;;;18.00;99.90;;;;;;5118055;27;20480;-54
2022/02/05 08:02:03;;;;;;;20.58;8.98;;;18.10;99.90;;;;;;5117827;27;20401;-52
2022/02/05 08:04:30;;;;;;;11.30;6.80;;;18.10;99.90;;;;;;5136574;27;20061;-52
2022/02/05 08:06:58;;;;;;;15.07;5.80;;;18.10;99.90;;;;;;5117990;27;20473;-51
2022/02/05 08:09:34;;;;;;;14.80;6.00;;;18.10;99.90;;;;;;5118108;27;20633;-53
2022/02/05 08:12:09;;;;;;;7.00;4.72;;;18.10;99.90;;;;;;5118087;27;20038;-53
2022/02/05 08:14:42;;;;;;;8.70;4.70;;;17.90;99.90;;;;;;5118104;27;20100;-51
2022/02/05 08:17:21;;;;;;;10.48;4.55;;;17.80;99.90;;;;;;5136465;27;20130;-54
2022/02/05 08:19:48;;;;;;;8.15;4.18;;;17.70;99.90;;;;;;5118201;27;20069;-51
2022/02/05 08:22:18;;;;;;;10.35;3.75;;;17.70;99.90;;;;;;5118291;27;20039;-54
2022/02/05 08:24:46;;;;;;;14.27;4.95;;;17.70;99.90;;;;;;5136057;27;20112;-51
2022/02/05 08:27:14;;;;;;;21.10;6.57;;;17.60;99.90;;;;;;5135946;27;20041;-55
2022/02/05 08:29:54;;;;;;;18.00;5.43;;;17.50;99.90;;;;;;5136051;27;20130;-54
2022/02/05 08:32:25;;;;;;;15.25;5.85;;;17.20;99.90;;;;;;5135989;27;20051;-54
2022/02/05 08:34:55;;;;;;;10.75;5.47;;;17.20;99.90;;;;;;5135940;27;20416;-50
2022/02/05 08:37:22;;;;;;;14.88;5.65;;;17.20;99.90;;;;;;5135790;27;20466;-54
2022/02/05 08:39:50;;;;;;;10.77;4.20;;;17.20;99.90;;;;;;5135655;27;20088;-53
2022/02/05 08:42:17;;;;;;;17.40;5.25;;;17.20;99.90;;;;;;5117787;27;20042;-54
2022/02/05 08:44:45;;;;;;;13.02;5.28;;;17.00;99.90;;;;;;5135910;27;20438;-55
2022/02/05 08:47:12;;;;;;;24.20;6.60;;;16.70;99.90;;;;;;5135780;27;20043;-51
2022/02/05 08:49:40;;;;;;;13.13;5.80;;;16.70;99.90;;;;;;5135623;27;20039;-53
2022/02/05 08:52:10;;;;;;;14.65;5.82;;;16.60;99.90;;;;;;5135548;27;20043;-51
2022/02/05 08:54:39;;;;;;;15.88;4.10;;;16.30;99.90;;;;;;5136008;27;20049;-55
2022/02/05 08:57:11;;;;;;;18.60;6.25;;;16.00;99.90;;;;;;5135207;27;20043;-55
2022/02/05 09:00:00;;;;;;;28.15;7.38;;;15.90;99.90;;;;;;5100564;27;20051;-52
2022/02/05 09:03:08;;;;;;;21.42;7.18;;;16.00;99.90;;;;;;5135318;27;20130;-51
2022/02/05 09:05:41;;;;;;;15.88;7.05;;;16.10;99.90;;;;;;5133585;27;20046;-54
2022/02/05 09:08:19;;;;;;;13.48;6.13;;;16.20;99.90;;;;;;5135529;27;20043;-54
2022/02/05 09:11:01;;;;;;;12.15;5.22;;;16.10;99.90;;;;;;5135227;27;20042;-55
2022/02/05 09:16:09;;;;;;;20.67;8.73;;;16.00;99.90;;;;;;5101380;27;20039;-55
2022/02/05 09:18:38;;;;;;;29.50;9.48;;;15.70;99.90;;;;;;5135173;27;20094;-53
2022/02/05 09:21:06;;;;;;;34.55;7.53;;;15.50;99.90;;;;;;5135074;27;20046;-49
2022/02/05 09:23:39;;;;;;;17.55;8.15;;;15.50;99.90;;;;;;5117116;27;20511;-52
2022/02/05 09:26:08;;;;;;;18.42;7.55;;;15.50;99.90;;;;;;5135542;27;20031;-50
2022/02/05 09:28:36;;;;;;;14.55;6.93;;;15.40;99.90;;;;;;5116529;27;20054;-59
2022/02/05 09:33:37;;;;;;;28.38;6.60;;;15.60;99.90;;;;;;5133780;27;20516;-58
2022/02/05 09:36:06;;;;;;;16.55;6.13;;;15.50;99.90;;;;;;5131574;27;20035;-58
2022/02/05 09:38:34;;;;;;;15.55;8.57;;;15.90;99.90;;;;;;5133146;27;20121;-58
2022/02/05 09:41:02;;;;;;;14.32;6.35;;;15.80;99.90;;;;;;5114715;27;20130;-58
2022/02/05 09:43:31;;;;;;;20.05;5.32;;;15.80;99.90;;;;;;5132374;27;20035;-58
2022/02/05 09:45:59;;;;;;;21.48;6.03;;;16.00;99.90;;;;;;5112034;28;20040;-59
2022/02/05 09:48:29;;;;;;;21.70;7.20;;;16.10;99.90;;;;;;5132780;27;20042;-59
2022/02/05 09:51:06;;;;;;;14.93;6.97;;;16.20;99.90;;;;;;5132049;27;20515;-58
2022/02/05 09:53:34;;;;;;;12.73;5.82;;;16.40;99.90;;;;;;5132802;27;20039;-58
2022/02/05 09:56:02;;;;;;;14.93;5.88;;;16.80;99.90;;;;;;5116547;28;20374;-58
2022/02/05 09:58:29;;;;;;;12.13;5.10;;;17.10;99.90;;;;;;5134539;27;20131;-58
2022/02/05 10:01:03;;;;;;;19.13;5.60;;;16.80;99.90;;;;;;5134877;27;20047;-59
2022/02/05 10:03:32;;;;;;;19.98;5.70;;;16.60;99.90;;;;;;5134499;28;20588;-59
2022/02/05 10:06:24;;;;;;;10.52;5.22;;;16.80;99.90;;;;;;5134498;28;20042;-59
2022/02/05 10:08:58;;;;;;;12.63;7.35;;;17.00;99.90;;;;;;5134606;28;20046;-59
2022/02/05 10:11:29;;;;;;;14.55;6.55;;;16.90;99.90;;;;;;5115972;28;20401;-59
2022/02/05 10:14:12;;;;;;;11.63;5.25;;;16.80;99.90;;;;;;5134351;27;20066;-59
2022/02/05 10:16:40;;;;;;;14.30;5.20;;;16.50;99.90;;;;;;5134630;28;20134;-59
2022/02/05 10:19:08;;;;;;;24.60;11.23;;;16.40;99.90;;;;;;5134397;28;20039;-58
2022/02/05 10:21:35;;;;;;;23.13;11.63;;;16.30;99.90;;;;;;5099381;28;20047;-58
2022/02/05 10:24:09;;;;;;;19.65;7.93;;;16.30;99.90;;;;;;5135418;27;20075;-58
2022/02/05 10:26:44;;;;;;;18.38;5.35;;;16.20;99.90;;;;;;5138407;27;20075;-60
2022/02/05 10:29:16;;;;;;;21.85;7.03;;;16.10;99.90;;;;;;5138787;27;20035;-59
2022/02/05 10:32:00;;;;;;;11.82;5.20;;;16.10;99.90;;;;;;5138592;27;20434;-58
2022/02/05 10:34:32;;;;;;;12.45;4.50;;;16.10;99.90;;;;;;5138411;27;20046;-58
2022/02/05 10:37:12;;;;;;;17.45;5.78;;;16.20;99.90;;;;;;5119900;27;20076;-58
2022/02/05 10:45:13;;;;;;;13.38;5.18;;;15.70;99.90;;;;;;5138145;27;20522;-59
2022/02/05 10:48:08;;;;;;;24.83;5.07;;;15.70;99.90;;;;;;5138023;27;20492;-59
2022/02/05 10:50:36;;;;;;;11.43;4.10;;;15.70;99.90;;;;;;5135655;27;20549;-59
2022/02/05 10:53:14;;;;;;;11.73;4.72;;;16.00;99.90;;;;;;5138066;27;20474;-59
2022/02/05 11:07:23;;;;;;;18.23;8.18;;;16.70;99.90;;;;;;5119436;27;20082;-59
2022/02/05 11:09:53;;;;;;;16.90;7.72;;;16.80;99.90;;;;;;5119433;27;20048;-59
2022/02/05 11:18:08;;;;;;;19.20;4.78;;;16.50;99.90;;;;;;5137725;27;20043;-59
2022/02/05 11:20:36;;;;;;;11.00;4.35;;;16.40;99.90;;;;;;5119072;27;20039;-58
2022/02/05 11:23:09;;;;;;;13.15;4.47;;;16.30;99.90;;;;;;5137288;27;20037;-59
2022/02/05 11:25:41;;;;;;;14.93;4.68;;;16.20;99.90;;;;;;5119346;27;20539;-59
2022/02/05 11:28:12;;;;;;;15.13;5.20;;;16.10;99.90;;;;;;5102092;27;20193;-58
2022/02/05 11:30:46;;;;;;;10.48;5.53;;;16.10;99.90;;;;;;5118872;27;20043;-59
2022/02/05 11:33:31;;;;;;;15.05;4.78;;;16.00;99.90;;;;;;5118909;27;20040;-59
2022/02/05 11:38:57;;;;;;;11.23;4.45;;;15.90;99.90;;;;;;5119006;27;20057;-58
2022/02/05 11:41:34;;;;;;;11.73;4.68;;;15.90;99.90;;;;;;5137147;27;20082;-58
2022/02/05 11:44:29;;;;;;;9.45;4.13;;;15.90;99.90;;;;;;5137055;27;20101;-59
2022/02/05 11:47:11;;;;;;;15.43;5.25;;;15.80;99.90;;;;;;5129216;27;20074;-58
2022/02/05 11:50:02;;;;;;;9.20;4.55;;;15.80;99.90;;;;;;5118789;27;20401;-59
2022/02/05 11:52:36;;;;;;;10.30;4.88;;;15.70;99.90;;;;;;5127024;27;20493;-59
2022/02/05 11:55:05;;;;;;;18.85;7.22;;;15.70;99.90;;;;;;5136737;27;20520;-59
2022/02/05 11:57:45;;;;;;;17.67;6.72;;;15.60;99.90;;;;;;5135998;27;20047;-59
2022/02/05 12:00:20;;;;;;;19.23;7.57;;;15.60;99.90;;;;;;5136817;27;20035;-59
2022/02/05 12:03:00;;;;;;;21.63;8.63;;;15.60;99.90;;;;;;5136524;27;20489;-59
2022/02/05 12:05:36;;;;;;;14.88;9.15;;;15.60;99.90;;;;;;5136572;27;20042;-59
2022/02/05 12:08:04;;;;;;;22.48;10.43;;;15.60;99.90;;;;;;5136691;27;20082;-59
2022/02/05 12:10:37;;;;;;;21.67;10.77;;;15.60;99.90;;;;;;5134301;27;20457;-60
2022/02/05 12:13:20;;;;;;;20.17;8.57;;;15.60;99.90;;;;;;5134972;27;20039;-59
2022/02/05 12:15:54;;;;;;;19.20;8.85;;;15.60;99.90;;;;;;5117516;27;20038;-59
2022/02/05 12:18:31;;;;;;;18.42;8.65;;;15.60;99.90;;;;;;5135105;27;20035;-58
2022/02/05 12:21:12;;;;;;;18.60;8.02;;;15.60;99.90;;;;;;5135495;27;20050;-60
2022/02/05 12:26:19;;;;;;;19.45;10.07;;;15.60;99.90;;;;;;5116850;27;20427;-59
2022/02/05 12:28:49;;;;;;;16.23;7.32;;;15.50;99.90;;;;;;5116960;27;20039;-59
2022/02/05 12:31:25;;;;;;;12.25;6.10;;;15.50;99.90;;;;;;5135080;27;20061;-59
2022/02/05 12:33:59;;;;;;;;;;;15.60;99.90;;;;;;5135165;27;20174;-59
2022/02/05 12:36:37;;;;;;;17.05;5.82;;;15.50;99.90;;;;;;5116984;27;19919;-59
2022/02/05 12:39:09;;;;;;;12.50;6.35;;;15.60;99.90;;;;;;5116927;27;20067;-59
2022/02/05 12:41:44;;;;;;;16.00;5.40;;;15.50;99.90;;;;;;5116658;27;20047;-59
2022/02/05 12:44:11;;;;;;;10.38;4.93;;;15.50;99.90;;;;;;5116726;27;20039;-59
2022/02/05 12:46:51;;;;;;;13.00;6.57;;;15.50;99.90;;;;;;5134615;27;20047;-58
2022/02/05 12:49:35;;;;;;;13.45;6.63;;;15.50;99.90;;;;;;5134845;27;20058;-59
2022/02/05 12:52:03;;;;;;;13.88;7.13;;;15.50;99.90;;;;;;5134868;27;20039;-59
2022/02/05 12:54:34;;;;;;;14.35;4.65;;;15.50;99.90;;;;;;5134293;27;20134;-59
2022/02/05 12:57:02;;;;;;;14.43;5.13;;;15.50;99.90;;;;;;5116604;27;20043;-59
2022/02/05 12:59:38;;;;;;;18.42;5.88;;;15.50;99.90;;;;;;5116106;27;20481;-59
2022/02/05 13:02:07;;;;;;;19.38;7.53;;;15.50;99.90;;;;;;5116192;27;20482;-59
2022/02/05 13:04:37;;;;;;;14.00;6.10;;;15.50;99.90;;;;;;5134615;27;20047;-59
2022/02/05 13:07:15;;;;;;;11.77;4.32;;;15.50;99.90;;;;;;5134504;27;20047;-58
2022/02/05 13:09:54;;;;;;;13.82;5.63;;;15.40;99.90;;;;;;5115943;27;20416;-58
2022/02/05 13:12:42;;;;;;;15.60;5.20;;;15.20;99.90;;;;;;5134907;27;20050;-59
2022/02/05 13:15:29;;;;;;;12.63;5.53;;;15.20;99.90;;;;;;5134179;27;20031;-58
2022/02/05 13:34:36;;;;;;;19.90;5.32;;;15.00;99.90;;;;;;5134038;27;20051;-58
2022/02/05 13:37:24;;;;;;;14.68;5.20;;;15.10;99.90;;;;;;5134369;27;20064;-58
2022/02/05 13:40:01;;;;;;;12.15;7.20;;;15.10;99.90;;;;;;5133847;27;20046;-58
2022/02/05 13:42:36;;;;;;;15.90;5.38;;;15.10;99.90;;;;;;5133979;27;20122;-58
2022/02/05 13:45:19;;;;;;;22.42;6.68;;;14.90;99.90;;;;;;5115679;27;20040;-59
2022/02/05 13:47:52;;;;;;;16.75;4.45;;;14.90;99.90;;;;;;5133065;27;20407;-58
2022/02/05 13:50:24;;;;;;;14.90;5.55;;;14.90;99.90;;;;;;5132583;27;20512;-59
2022/02/05 13:53:02;;;;;;;14.65;6.57;;;14.90;99.90;;;;;;5133157;27;20039;-59
2022/02/05 13:55:33;;;;;;;19.40;6.60;;;15.00;99.90;;;;;;5134018;27;20042;-58
2022/02/05 13:58:05;;;;;;;19.95;7.63;;;15.00;99.90;;;;;;5115182;28;20051;-59
2022/02/05 14:00:43;;;;;;;16.23;6.88;;;15.00;99.90;;;;;;5134063;27;20116;-59
2022/02/05 14:03:13;;;;;;;18.23;6.93;;;14.90;99.90;;;;;;5134328;27;20093;-59
2022/02/05 14:06:19;;;;;;;29.63;5.85;;;14.90;99.90;;;;;;5134452;28;20043;-59
2022/02/05 14:08:55;;;;;;;13.98;5.32;;;14.90;99.90;;;;;;5051253;28;20041;-58
2022/02/05 14:11:27;;;;;;;12.75;4.72;;;14.90;99.90;;;;;;5051137;28;20045;-58
2022/02/05 14:13:59;;;;;;;28.52;6.85;;;14.80;99.90;;;;;;5082674;28;20036;-59
2022/02/05 14:16:32;;;;;;;23.58;6.57;;;14.80;99.90;;;;;;5099053;28;20043;-58
2022/02/05 14:19:02;;;;;;;19.70;6.65;;;14.70;99.90;;;;;;5134256;28;20047;-59
2022/02/05 14:21:44;;;;;;;15.50;4.88;;;14.60;99.90;;;;;;5134257;28;20427;-59
2022/02/05 14:24:21;;;;;;;16.20;4.90;;;14.60;99.90;;;;;;5134379;27;20096;-59
2022/02/05 14:27:00;;;;;;;22.83;6.40;;;14.50;99.90;;;;;;5134350;28;20039;-59
2022/02/05 14:29:37;;;;;;;24.30;7.38;;;14.50;99.90;;;;;;5133994;28;20126;-58
2022/02/05 14:42:42;;;;;;;22.25;6.30;;;14.30;99.90;;;;;;5134065;28;20560;-59
2022/02/05 14:45:10;;;;;;;18.13;5.38;;;14.30;99.90;;;;;;5134145;28;20039;-59
2022/02/05 14:47:38;;;;;;;19.05;5.53;;;14.30;99.90;;;;;;5133935;27;20042;-59
2022/02/05 14:50:07;;;;;;;14.85;6.25;;;14.40;99.90;;;;;;5134407;28;20080;-59
2022/02/05 14:52:35;;;;;;;13.95;6.07;;;14.40;99.90;;;;;;5134123;28;20048;-59
2022/02/05 14:55:03;;;;;;;12.27;5.25;;;14.50;99.90;;;;;;5098964;28;20039;-59
2022/02/05 14:57:31;;;;;;;17.65;8.13;;;14.40;99.90;;;;;;5120235;28;20447;-58
2022/02/05 15:00:03;;;;;;;24.75;8.18;;;14.40;99.90;;;;;;5095380;28;20038;-59
2022/02/05 15:02:30;;;;;;;17.80;7.07;;;14.50;99.90;;;;;;5113256;28;20051;-59
2022/02/05 15:04:58;;;;;;;14.73;6.50;;;14.40;99.90;;;;;;5095517;28;20496;-59
2022/02/05 15:07:26;;;;;;;19.88;6.20;;;14.40;99.90;;;;;;5113519;28;20051;-59
2022/02/05 15:09:53;;;;;;;12.25;6.20;;;14.40;99.90;;;;;;5114474;28;20044;-59
2022/02/05 15:12:21;;;;;;;23.60;6.50;;;14.40;99.90;;;;;;5099101;28;20127;-59
2022/02/05 15:14:49;;;;;;;11.85;6.32;;;14.30;99.90;;;;;;5117095;28;20135;-59
2022/02/05 15:17:16;;;;;;;17.63;6.57;;;14.30;99.90;;;;;;5082166;28;20139;-59
2022/02/05 15:19:44;;;;;;;24.10;6.55;;;14.20;99.90;;;;;;5098846;28;20395;-58
2022/02/05 15:22:12;;;;;;;15.50;6.82;;;14.20;99.90;;;;;;5116865;28;20114;-58
2022/02/05 15:24:40;;;;;;;24.00;11.82;;;14.20;99.90;;;;;;5116890;28;20043;-58
2022/02/05 15:27:07;;;;;;;19.40;9.05;;;14.20;99.90;;;;;;5116866;28;20040;-58
2022/02/05 15:29:35;;;;;;;17.48;8.45;;;14.30;99.90;;;;;;5098692;28;20048;-59
2022/02/05 15:32:03;;;;;;;18.45;9.10;;;14.20;99.90;;;;;;5098618;28;20058;-59
2022/02/05 15:34:30;;;;;;;17.75;8.40;;;14.20;99.90;;;;;;5116760;28;20078;-59
2022/02/05 15:37:06;;;;;;;23.30;8.00;;;14.20;99.90;;;;;;5081834;28;20079;-59
2022/02/05 15:45:17;;;;;;;23.05;11.10;;;14.10;99.90;;;;;;5098591;28;20043;-59
2022/02/05 15:47:44;;;;;;;14.82;9.20;;;14.10;99.90;;;;;;5116520;28;20044;-59
2022/02/05 15:50:13;;;;;;;23.55;9.25;;;14.00;99.90;;;;;;5116432;28;20434;-59
2022/02/05 15:52:41;;;;;;;17.13;7.82;;;14.00;99.90;;;;;;5098275;28;20563;-59
2022/02/05 15:55:10;;;;;;;21.48;11.65;;;14.00;99.90;;;;;;5098340;28;20039;-59
2022/02/05 16:00:32;;;;;;;21.40;8.65;;;14.10;99.90;;;;;;5098390;28;20039;-58
2022/02/05 16:03:01;;;;;;;13.18;7.30;;;14.10;99.90;;;;;;5098492;28;20043;-59
2022/02/05 16:05:29;;;;;;;30.38;8.60;;;14.20;99.90;;;;;;5116258;28;20456;-67
2022/02/05 16:07:57;;;;;;;18.83;6.57;;;14.20;99.90;;;;;;5097989;28;20043;-65
2022/02/05 16:10:25;;;;;;;20.55;7.78;;;14.30;99.90;;;;;;5115652;28;20102;-65
2022/02/05 16:12:53;;;;;;;19.10;8.18;;;14.30;99.90;;;;;;5116128;28;20046;-61